KAXV/AXV METAR and TAF weather

Enter ICAO airport designator
Station Type Date Time Source
KAXV METAR 2020/09/22 00:55 UTC NOAA

KAXV 220055Z AUTO 10004KT 10SM CLR 13/05 A3033 RMK AO2


Station Type Date Time Source
KAXV Decoded METAR 2020/09/22 00:55 UTC NOAA

Station name not available
Sep 21, 2020 - 08:55 PM EDT / 2020.09.22 0055 UTC
Wind: from the E (100 degrees) at 5 MPH (4 KT):0
Visibility: 10 mile(s):0
Sky conditions: clear
Temperature: 55 F (13 C)
Dew Point: 41 F (5 C)
Relative Humidity: 58%
Pressure (altimeter): 30.33 in. Hg (1027 hPa)
ob: KAXV 220055Z AUTO 10004KT 10SM CLR 13/05 A3033 RMK AO2
cycle: 1

Station Type Date Time Source
KAXV TAF UTC NOAA

Error!

Example: see airport list